sensor_id;sensor_type;location;lat;lon;timestamp;temperature;humidity
3262;DHT22;1643;47.746;9.000;2023-03-01T00:01:05;2.70;98.60
3262;DHT22;1643;47.746;9.000;2023-03-01T00:03:32;2.70;98.60
3262;DHT22;1643;47.746;9.000;2023-03-01T00:05:58;2.70;98.60
3262;DHT22;1643;47.746;9.000;2023-03-01T00:08:24;2.70;98.60
3262;DHT22;1643;47.746;9.000;2023-03-01T00:11:02;2.70;98.50
3262;DHT22;1643;47.746;9.000;2023-03-01T00:13:28;2.80;98.60
3262;DHT22;1643;47.746;9.000;2023-03-01T00:15:54;2.80;98.60
3262;DHT22;1643;47.746;9.000;2023-03-01T00:18:20;2.70;98.50
3262;DHT22;1643;47.746;9.000;2023-03-01T00:20:55;2.70;98.60
3262;DHT22;1643;47.746;9.000;2023-03-01T00:23:21;2.70;98.60
3262;DHT22;1643;47.746;9.000;2023-03-01T00:25:47;2.70;98.60
3262;DHT22;1643;47.746;9.000;2023-03-01T00:28:14;2.70;98.60
3262;DHT22;1643;47.746;9.000;2023-03-01T00:30:39;2.70;98.60
3262;DHT22;1643;47.746;9.000;2023-03-01T00:33:05;2.80;98.60
3262;DHT22;1643;47.746;9.000;2023-03-01T00:35:32;2.80;98.60
3262;DHT22;1643;47.746;9.000;2023-03-01T00:37:58;2.80;98.50
3262;DHT22;1643;47.746;9.000;2023-03-01T00:40:25;2.90;98.50
3262;DHT22;1643;47.746;9.000;2023-03-01T00:42:51;2.80;98.50
3262;DHT22;1643;47.746;9.000;2023-03-01T00:45:17;2.90;98.80
3262;DHT22;1643;47.746;9.000;2023-03-01T00:47:43;2.90;98.50
3262;DHT22;1643;47.746;9.000;2023-03-01T00:50:10;2.90;98.80
3262;DHT22;1643;47.746;9.000;2023-03-01T00:52:35;2.90;98.50
3262;DHT22;1643;47.746;9.000;2023-03-01T00:55:01;2.90;98.50
3262;DHT22;1643;47.746;9.000;2023-03-01T00:57:27;2.90;98.60
3262;DHT22;1643;47.746;9.000;2023-03-01T00:59:52;2.90;98.60
3262;DHT22;1643;47.746;9.000;2023-03-01T01:02:19;3.00;98.60
3262;DHT22;1643;47.746;9.000;2023-03-01T01:04:45;3.00;98.60
3262;DHT22;1643;47.746;9.000;2023-03-01T01:07:11;3.00;98.70
3262;DHT22;1643;47.746;9.000;2023-03-01T01:09:37;3.00;98.60
3262;DHT22;1643;47.746;9.000;2023-03-01T01:12:04;3.00;98.70
3262;DHT22;1643;47.746;9.000;2023-03-01T01:14:30;3.00;98.70
3262;DHT22;1643;47.746;9.000;2023-03-01T01:16:55;3.10;98.70
3262;DHT22;1643;47.746;9.000;2023-03-01T01:19:22;3.10;98.60
3262;DHT22;1643;47.746;9.000;2023-03-01T01:21:48;3.10;98.60
3262;DHT22;1643;47.746;9.000;2023-03-01T01:24:14;3.10;98.60
3262;DHT22;1643;47.746;9.000;2023-03-01T01:26:41;3.10;98.70
3262;DHT22;1643;47.746;9.000;2023-03-01T01:29:07;3.10;98.70
3262;DHT22;1643;47.746;9.000;2023-03-01T01:31:34;3.10;98.70
3262;DHT22;1643;47.746;9.000;2023-03-01T01:34:01;3.10;98.70
3262;DHT22;1643;47.746;9.000;2023-03-01T01:36:27;3.10;98.70
3262;DHT22;1643;47.746;9.000;2023-03-01T01:38:53;3.10;98.70
3262;DHT22;1643;47.746;9.000;2023-03-01T01:41:20;3.10;98.70
3262;DHT22;1643;47.746;9.000;2023-03-01T01:44:16;3.10;98.70
3262;DHT22;1643;47.746;9.000;2023-03-01T01:46:46;3.10;98.70
3262;DHT22;1643;47.746;9.000;2023-03-01T01:51:45;3.20;98.70
3262;DHT22;1643;47.746;9.000;2023-03-01T01:54:33;3.10;98.70
3262;DHT22;1643;47.746;9.000;2023-03-01T01:57:02;3.10;98.80
3262;DHT22;1643;47.746;9.000;2023-03-01T01:59:30;3.20;98.80
3262;DHT22;1643;47.746;9.000;2023-03-01T02:01:59;3.20;98.70
3262;DHT22;1643;47.746;9.000;2023-03-01T02:04:26;3.20;98.70
3262;DHT22;1643;47.746;9.000;2023-03-01T02:07:03;3.30;98.70
3262;DHT22;1643;47.746;9.000;2023-03-01T02:09:33;3.30;98.70
3262;DHT22;1643;47.746;9.000;2023-03-01T02:12:00;3.20;98.70
3262;DHT22;1643;47.746;9.000;2023-03-01T02:14:26;3.10;98.70
3262;DHT22;1643;47.746;9.000;2023-03-01T02:16:52;3.20;98.80
3262;DHT22;1643;47.746;9.000;2023-03-01T02:22:24;3.30;98.90
3262;DHT22;1643;47.746;9.000;2023-03-01T02:27:26;3.30;98.90
3262;DHT22;1643;47.746;9.000;2023-03-01T02:29:54;3.30;98.80
3262;DHT22;1643;47.746;9.000;2023-03-01T02:32:20;3.30;98.80
3262;DHT22;1643;47.746;9.000;2023-03-01T02:34:54;3.40;98.80
3262;DHT22;1643;47.746;9.000;2023-03-01T02:37:21;3.30;98.80
3262;DHT22;1643;47.746;9.000;2023-03-01T02:39:56;3.30;98.80
3262;DHT22;1643;47.746;9.000;2023-03-01T02:42:27;3.30;98.90
3262;DHT22;1643;47.746;9.000;2023-03-01T02:44:55;3.30;98.90
3262;DHT22;1643;47.746;9.000;2023-03-01T02:47:21;3.40;98.90
3262;DHT22;1643;47.746;9.000;2023-03-01T02:49:47;3.30;98.80
3262;DHT22;1643;47.746;9.000;2023-03-01T02:55:09;3.40;98.90
3262;DHT22;1643;47.746;9.000;2023-03-01T02:57:38;3.30;99.00
3262;DHT22;1643;47.746;9.000;2023-03-01T03:00:15;3.30;98.90
3262;DHT22;1643;47.746;9.000;2023-03-01T03:02:52;3.40;99.00
3262;DHT22;1643;47.746;9.000;2023-03-01T03:05:20;3.40;98.90
3262;DHT22;1643;47.746;9.000;2023-03-01T03:07:47;3.40;98.90
3262;DHT22;1643;47.746;9.000;2023-03-01T03:10:19;3.40;98.90
3262;DHT22;1643;47.746;9.000;2023-03-01T03:12:50;3.40;98.90
3262;DHT22;1643;47.746;9.000;2023-03-01T03:15:16;3.30;99.20
3262;DHT22;1643;47.746;9.000;2023-03-01T03:17:43;3.40;98.90
3262;DHT22;1643;47.746;9.000;2023-03-01T03:20:11;3.40;98.90
3262;DHT22;1643;47.746;9.000;2023-03-01T03:22:39;3.40;98.90
3262;DHT22;1643;47.746;9.000;2023-03-01T03:25:08;3.40;98.90
3262;DHT22;1643;47.746;9.000;2023-03-01T03:27:36;3.40;98.90
3262;DHT22;1643;47.746;9.000;2023-03-01T03:30:04;3.40;98.90
3262;DHT22;1643;47.746;9.000;2023-03-01T03:32:37;3.40;98.90
3262;DHT22;1643;47.746;9.000;2023-03-01T03:35:08;3.30;98.80
3262;DHT22;1643;47.746;9.000;2023-03-01T03:37:38;3.40;99.20
3262;DHT22;1643;47.746;9.000;2023-03-01T03:40:22;3.30;98.90
3262;DHT22;1643;47.746;9.000;2023-03-01T03:42:47;3.30;98.90
3262;DHT22;1643;47.746;9.000;2023-03-01T03:45:14;3.30;98.90
3262;DHT22;1643;47.746;9.000;2023-03-01T03:47:39;3.30;99.00
3262;DHT22;1643;47.746;9.000;2023-03-01T03:50:05;3.20;98.90
3262;DHT22;1643;47.746;9.000;2023-03-01T03:52:31;3.10;99.00
3262;DHT22;1643;47.746;9.000;2023-03-01T03:54:56;3.10;99.10
3262;DHT22;1643;47.746;9.000;2023-03-01T03:57:22;3.10;99.10
3262;DHT22;1643;47.746;9.000;2023-03-01T03:59:48;3.10;99.10
3262;DHT22;1643;47.746;9.000;2023-03-01T04:02:13;3.20;99.10
3262;DHT22;1643;47.746;9.000;2023-03-01T04:04:47;3.20;99.10
3262;DHT22;1643;47.746;9.000;2023-03-01T04:07:15;3.30;99.10
3262;DHT22;1643;47.746;9.000;2023-03-01T04:09:42;3.30;99.10
3262;DHT22;1643;47.746;9.000;2023-03-01T04:12:08;3.20;99.10
3262;DHT22;1643;47.746;9.000;2023-03-01T04:14:34;3.20;99.20
3262;DHT22;1643;47.746;9.000;2023-03-01T04:16:59;3.20;99.10
3262;DHT22;1643;47.746;9.000;2023-03-01T04:19:26;3.20;99.10
3262;DHT22;1643;47.746;9.000;2023-03-01T04:21:52;3.20;99.20
3262;DHT22;1643;47.746;9.000;2023-03-01T04:24:18;3.20;99.20
3262;DHT22;1643;47.746;9.000;2023-03-01T04:26:44;3.20;99.20
3262;DHT22;1643;47.746;9.000;2023-03-01T04:29:10;3.10;99.20
3262;DHT22;1643;47.746;9.000;2023-03-01T04:31:36;3.10;99.30
3262;DHT22;1643;47.746;9.000;2023-03-01T04:34:01;3.20;99.30
3262;DHT22;1643;47.746;9.000;2023-03-01T04:36:28;3.10;99.20
3262;DHT22;1643;47.746;9.000;2023-03-01T04:38:55;3.20;99.30
3262;DHT22;1643;47.746;9.000;2023-03-01T04:41:22;3.20;99.20
3262;DHT22;1643;47.746;9.000;2023-03-01T04:43:48;3.20;99.20
3262;DHT22;1643;47.746;9.000;2023-03-01T04:46:17;3.20;99.30
3262;DHT22;1643;47.746;9.000;2023-03-01T04:48:45;3.20;99.20
3262;DHT22;1643;47.746;9.000;2023-03-01T04:51:11;3.20;99.30
3262;DHT22;1643;47.746;9.000;2023-03-01T04:53:40;3.10;99.30
3262;DHT22;1643;47.746;9.000;2023-03-01T04:56:06;3.10;99.30
3262;DHT22;1643;47.746;9.000;2023-03-01T04:58:32;3.20;99.30
3262;DHT22;1643;47.746;9.000;2023-03-01T05:00:58;3.10;99.30
3262;DHT22;1643;47.746;9.000;2023-03-01T05:03:23;3.10;99.30
3262;DHT22;1643;47.746;9.000;2023-03-01T05:05:51;3.10;99.30
3262;DHT22;1643;47.746;9.000;2023-03-01T05:08:17;3.20;99.30
3262;DHT22;1643;47.746;9.000;2023-03-01T05:10:44;3.20;99.30
3262;DHT22;1643;47.746;9.000;2023-03-01T05:13:12;3.10;99.30
3262;DHT22;1643;47.746;9.000;2023-03-01T05:15:38;3.10;99.30
3262;DHT22;1643;47.746;9.000;2023-03-01T05:18:05;3.10;99.30
3262;DHT22;1643;47.746;9.000;2023-03-01T05:20:37;3.20;99.40
3262;DHT22;1643;47.746;9.000;2023-03-01T05:23:03;3.20;99.40
3262;DHT22;1643;47.746;9.000;2023-03-01T05:25:33;3.20;99.40
3262;DHT22;1643;47.746;9.000;2023-03-01T05:28:01;3.10;99.40
3262;DHT22;1643;47.746;9.000;2023-03-01T05:30:33;3.20;99.40
3262;DHT22;1643;47.746;9.000;2023-03-01T05:33:00;3.20;99.30
3262;DHT22;1643;47.746;9.000;2023-03-01T05:35:26;3.20;99.40
3262;DHT22;1643;47.746;9.000;2023-03-01T05:37:51;3.10;99.40
3262;DHT22;1643;47.746;9.000;2023-03-01T05:40:20;3.10;99.40
3262;DHT22;1643;47.746;9.000;2023-03-01T05:42:48;3.20;99.50
3262;DHT22;1643;47.746;9.000;2023-03-01T05:45:15;3.10;99.40
3262;DHT22;1643;47.746;9.000;2023-03-01T05:47:42;3.10;99.60
3262;DHT22;1643;47.746;9.000;2023-03-01T05:50:29;3.10;99.60
3262;DHT22;1643;47.746;9.000;2023-03-01T05:53:01;3.10;99.50
3262;DHT22;1643;47.746;9.000;2023-03-01T05:55:28;3.10;99.60
3262;DHT22;1643;47.746;9.000;2023-03-01T05:57:54;3.10;99.60
3262;DHT22;1643;47.746;9.000;2023-03-01T06:00:20;3.20;99.70
3262;DHT22;1643;47.746;9.000;2023-03-01T06:02:49;3.20;99.60
3262;DHT22;1643;47.746;9.000;2023-03-01T06:05:17;3.00;99.60
3262;DHT22;1643;47.746;9.000;2023-03-01T06:07:43;3.10;99.70
3262;DHT22;1643;47.746;9.000;2023-03-01T06:10:11;3.20;99.70
3262;DHT22;1643;47.746;9.000;2023-03-01T06:12:38;3.20;99.60
3262;DHT22;1643;47.746;9.000;2023-03-01T06:15:05;3.20;99.60
3262;DHT22;1643;47.746;9.000;2023-03-01T06:17:33;3.20;99.70
3262;DHT22;1643;47.746;9.000;2023-03-01T06:20:08;3.30;99.70
3262;DHT22;1643;47.746;9.000;2023-03-01T06:22:34;3.30;99.60
3262;DHT22;1643;47.746;9.000;2023-03-01T06:24:59;3.30;99.60
3262;DHT22;1643;47.746;9.000;2023-03-01T06:27:25;3.40;99.50
3262;DHT22;1643;47.746;9.000;2023-03-01T06:29:51;3.40;99.50
3262;DHT22;1643;47.746;9.000;2023-03-01T06:32:16;3.40;99.50
3262;DHT22;1643;47.746;9.000;2023-03-01T06:34:42;3.40;99.50
3262;DHT22;1643;47.746;9.000;2023-03-01T06:37:07;3.50;99.50
3262;DHT22;1643;47.746;9.000;2023-03-01T06:39:33;3.50;99.50
3262;DHT22;1643;47.746;9.000;2023-03-01T06:41:59;3.50;99.50
3262;DHT22;1643;47.746;9.000;2023-03-01T06:44:25;3.40;99.50
3262;DHT22;1643;47.746;9.000;2023-03-01T06:46:51;3.40;99.60
3262;DHT22;1643;47.746;9.000;2023-03-01T06:49:17;3.30;99.60
3262;DHT22;1643;47.746;9.000;2023-03-01T06:51:44;3.40;99.60
3262;DHT22;1643;47.746;9.000;2023-03-01T06:54:10;3.40;99.60
3262;DHT22;1643;47.746;9.000;2023-03-01T06:56:36;3.30;99.60
3262;DHT22;1643;47.746;9.000;2023-03-01T06:59:02;3.40;99.60
3262;DHT22;1643;47.746;9.000;2023-03-01T07:01:28;3.40;99.50
3262;DHT22;1643;47.746;9.000;2023-03-01T07:03:54;3.30;99.60
3262;DHT22;1643;47.746;9.000;2023-03-01T07:06:20;3.40;99.70
3262;DHT22;1643;47.746;9.000;2023-03-01T07:08:46;3.40;99.60
3262;DHT22;1643;47.746;9.000;2023-03-01T07:11:12;3.40;99.70
3262;DHT22;1643;47.746;9.000;2023-03-01T07:13:38;3.40;99.60
3262;DHT22;1643;47.746;9.000;2023-03-01T07:16:03;3.50;99.60
3262;DHT22;1643;47.746;9.000;2023-03-01T07:18:29;3.50;99.50
3262;DHT22;1643;47.746;9.000;2023-03-01T07:20:55;3.40;99.50
3262;DHT22;1643;47.746;9.000;2023-03-01T07:23:20;3.40;99.60
3262;DHT22;1643;47.746;9.000;2023-03-01T07:25:54;3.30;99.50
3262;DHT22;1643;47.746;9.000;2023-03-01T07:28:22;3.30;99.60
3262;DHT22;1643;47.746;9.000;2023-03-01T07:30:48;3.40;99.60
3262;DHT22;1643;47.746;9.000;2023-03-01T07:33:14;3.30;99.80
3262;DHT22;1643;47.746;9.000;2023-03-01T07:35:40;3.40;99.60
3262;DHT22;1643;47.746;9.000;2023-03-01T07:38:05;3.20;99.60
3262;DHT22;1643;47.746;9.000;2023-03-01T07:40:31;3.30;99.60
3262;DHT22;1643;47.746;9.000;2023-03-01T07:42:58;3.20;99.60
3262;DHT22;1643;47.746;9.000;2023-03-01T07:45:27;3.20;99.50
3262;DHT22;1643;47.746;9.000;2023-03-01T07:47:53;3.20;99.60
3262;DHT22;1643;47.746;9.000;2023-03-01T07:50:20;3.20;99.60
3262;DHT22;1643;47.746;9.000;2023-03-01T07:52:47;3.10;99.70
3262;DHT22;1643;47.746;9.000;2023-03-01T07:55:13;3.20;99.60
3262;DHT22;1643;47.746;9.000;2023-03-01T07:57:39;3.30;99.60
3262;DHT22;1643;47.746;9.000;2023-03-01T08:00:05;3.20;99.60
3262;DHT22;1643;47.746;9.000;2023-03-01T08:02:31;3.20;99.60
3262;DHT22;1643;47.746;9.000;2023-03-01T08:04:57;3.30;99.70
3262;DHT22;1643;47.746;9.000;2023-03-01T08:07:22;3.30;99.50
3262;DHT22;1643;47.746;9.000;2023-03-01T08:09:48;3.40;99.50
3262;DHT22;1643;47.746;9.000;2023-03-01T08:12:14;3.40;99.50
3262;DHT22;1643;47.746;9.000;2023-03-01T08:14:41;3.30;99.60
3262;DHT22;1643;47.746;9.000;2023-03-01T08:17:07;3.30;99.50
3262;DHT22;1643;47.746;9.000;2023-03-01T08:19:32;3.40;99.60
3262;DHT22;1643;47.746;9.000;2023-03-01T08:22:01;3.40;99.60
3262;DHT22;1643;47.746;9.000;2023-03-01T08:24:27;3.40;99.60
3262;DHT22;1643;47.746;9.000;2023-03-01T08:26:53;3.40;99.60
3262;DHT22;1643;47.746;9.000;2023-03-01T08:29:19;3.40;99.60
3262;DHT22;1643;47.746;9.000;2023-03-01T08:31:44;3.40;99.50
3262;DHT22;1643;47.746;9.000;2023-03-01T08:34:12;3.50;99.50
3262;DHT22;1643;47.746;9.000;2023-03-01T08:36:40;3.50;99.50
3262;DHT22;1643;47.746;9.000;2023-03-01T08:39:08;3.50;99.90
3262;DHT22;1643;47.746;9.000;2023-03-01T08:41:33;3.50;99.60
3262;DHT22;1643;47.746;9.000;2023-03-01T08:43:59;3.60;99.60
3262;DHT22;1643;47.746;9.000;2023-03-01T08:46:33;3.50;99.60
3262;DHT22;1643;47.746;9.000;2023-03-01T08:48:59;3.50;99.50
3262;DHT22;1643;47.746;9.000;2023-03-01T08:51:26;3.60;99.50
3262;DHT22;1643;47.746;9.000;2023-03-01T08:53:52;3.70;99.50
3262;DHT22;1643;47.746;9.000;2023-03-01T08:56:18;3.70;99.50
3262;DHT22;1643;47.746;9.000;2023-03-01T08:58:47;3.70;99.50
3262;DHT22;1643;47.746;9.000;2023-03-01T09:01:18;3.80;99.50
3262;DHT22;1643;47.746;9.000;2023-03-01T09:03:44;3.90;99.50
3262;DHT22;1643;47.746;9.000;2023-03-01T09:06:11;3.80;99.30
3262;DHT22;1643;47.746;9.000;2023-03-01T09:08:38;3.70;99.50
3262;DHT22;1643;47.746;9.000;2023-03-01T09:11:09;3.60;99.50
3262;DHT22;1643;47.746;9.000;2023-03-01T09:13:35;3.60;99.50
3262;DHT22;1643;47.746;9.000;2023-03-01T09:16:03;3.60;99.80
3262;DHT22;1643;47.746;9.000;2023-03-01T09:18:29;3.70;99.50
3262;DHT22;1643;47.746;9.000;2023-03-01T09:21:12;3.70;99.40
3262;DHT22;1643;47.746;9.000;2023-03-01T09:23:46;3.80;99.40
3262;DHT22;1643;47.746;9.000;2023-03-01T09:26:20;3.80;99.40
3262;DHT22;1643;47.746;9.000;2023-03-01T09:28:48;3.70;99.40
3262;DHT22;1643;47.746;9.000;2023-03-01T09:31:15;3.80;99.30
3262;DHT22;1643;47.746;9.000;2023-03-01T09:33:42;3.80;99.30
3262;DHT22;1643;47.746;9.000;2023-03-01T09:36:12;3.90;99.30
3262;DHT22;1643;47.746;9.000;2023-03-01T09:38:38;3.90;99.20
3262;DHT22;1643;47.746;9.000;2023-03-01T09:44:20;3.60;99.40
3262;DHT22;1643;47.746;9.000;2023-03-01T09:46:46;3.80;99.50
3262;DHT22;1643;47.746;9.000;2023-03-01T09:49:39;3.80;99.40
3262;DHT22;1643;47.746;9.000;2023-03-01T09:52:23;3.80;99.40
3262;DHT22;1643;47.746;9.000;2023-03-01T09:54:53;3.80;99.20
3262;DHT22;1643;47.746;9.000;2023-03-01T09:57:28;3.80;99.30
3262;DHT22;1643;47.746;9.000;2023-03-01T10:00:09;3.80;99.20
3262;DHT22;1643;47.746;9.000;2023-03-01T10:02:47;3.70;99.20
3262;DHT22;1643;47.746;9.000;2023-03-01T10:05:35;3.70;99.20
3262;DHT22;1643;47.746;9.000;2023-03-01T10:10:38;3.80;99.20
3262;DHT22;1643;47.746;9.000;2023-03-01T10:13:37;3.90;99.20
3262;DHT22;1643;47.746;9.000;2023-03-01T10:16:17;3.80;99.10
3262;DHT22;1643;47.746;9.000;2023-03-01T10:18:48;3.90;99.20
3262;DHT22;1643;47.746;9.000;2023-03-01T10:21:19;4.00;99.10
3262;DHT22;1643;47.746;9.000;2023-03-01T10:23:46;4.10;99.10
3262;DHT22;1643;47.746;9.000;2023-03-01T10:26:38;4.10;99.00
3262;DHT22;1643;47.746;9.000;2023-03-01T10:29:12;4.20;98.90
3262;DHT22;1643;47.746;9.000;2023-03-01T10:31:49;4.10;98.90
3262;DHT22;1643;47.746;9.000;2023-03-01T10:34:20;4.20;99.00
3262;DHT22;1643;47.746;9.000;2023-03-01T10:37:28;4.30;98.90
3262;DHT22;1643;47.746;9.000;2023-03-01T10:40:06;4.30;98.80
3262;DHT22;1643;47.746;9.000;2023-03-01T10:42:38;4.20;98.90
3262;DHT22;1643;47.746;9.000;2023-03-01T10:45:30;4.20;98.90
3262;DHT22;1643;47.746;9.000;2023-03-01T10:50:34;4.10;98.90
3262;DHT22;1643;47.746;9.000;2023-03-01T10:53:04;4.10;98.90
3262;DHT22;1643;47.746;9.000;2023-03-01T10:58:08;4.20;98.80
3262;DHT22;1643;47.746;9.000;2023-03-01T11:03:37;4.20;98.70
3262;DHT22;1643;47.746;9.000;2023-03-01T11:08:40;4.20;98.70
3262;DHT22;1643;47.746;9.000;2023-03-01T11:13:54;4.20;98.70
3262;DHT22;1643;47.746;9.000;2023-03-01T11:19:13;4.20;98.60
3262;DHT22;1643;47.746;9.000;2023-03-01T11:22:02;4.20;98.60
3262;DHT22;1643;47.746;9.000;2023-03-01T11:24:46;4.20;98.70
3262;DHT22;1643;47.746;9.000;2023-03-01T11:27:32;4.10;98.70
3262;DHT22;1643;47.746;9.000;2023-03-01T11:32:43;4.20;98.50
3262;DHT22;1643;47.746;9.000;2023-03-01T11:35:18;4.10;98.50
3262;DHT22;1643;47.746;9.000;2023-03-01T11:38:09;4.20;98.80
3262;DHT22;1643;47.746;9.000;2023-03-01T11:40:41;4.20;98.50
3262;DHT22;1643;47.746;9.000;2023-03-01T11:43:26;4.20;98.50
3262;DHT22;1643;47.746;9.000;2023-03-01T11:51:10;4.30;98.30
3262;DHT22;1643;47.746;9.000;2023-03-01T11:56:32;4.20;98.40
3262;DHT22;1643;47.746;9.000;2023-03-01T12:04:30;4.30;98.30
3262;DHT22;1643;47.746;9.000;2023-03-01T12:07:01;4.20;98.20
3262;DHT22;1643;47.746;9.000;2023-03-01T12:09:56;4.30;98.20
3262;DHT22;1643;47.746;9.000;2023-03-01T12:12:34;4.30;98.20
3262;DHT22;1643;47.746;9.000;2023-03-01T12:17:54;4.30;98.10
3262;DHT22;1643;47.746;9.000;2023-03-01T12:20:30;4.30;98.00
3262;DHT22;1643;47.746;9.000;2023-03-01T12:28:39;4.40;98.00
3262;DHT22;1643;47.746;9.000;2023-03-01T12:31:24;4.40;98.00
3262;DHT22;1643;47.746;9.000;2023-03-01T12:34:47;4.50;97.90
3262;DHT22;1643;47.746;9.000;2023-03-01T12:45:35;4.50;98.10
3262;DHT22;1643;47.746;9.000;2023-03-01T12:48:34;4.50;98.10
3262;DHT22;1643;47.746;9.000;2023-03-01T12:51:06;4.50;98.00
3262;DHT22;1643;47.746;9.000;2023-03-01T12:53:48;4.60;98.00
3262;DHT22;1643;47.746;9.000;2023-03-01T12:56:18;4.60;97.90
3262;DHT22;1643;47.746;9.000;2023-03-01T12:59:08;4.60;97.90
3262;DHT22;1643;47.746;9.000;2023-03-01T13:01:51;4.60;97.90
3262;DHT22;1643;47.746;9.000;2023-03-01T13:15:26;4.70;97.90
3262;DHT22;1643;47.746;9.000;2023-03-01T13:17:57;4.80;97.90
3262;DHT22;1643;47.746;9.000;2023-03-01T13:20:30;4.70;97.90
3262;DHT22;1643;47.746;9.000;2023-03-01T13:25:27;4.70;97.90
3262;DHT22;1643;47.746;9.000;2023-03-01T13:30:57;4.70;97.90
3262;DHT22;1643;47.746;9.000;2023-03-01T13:35:55;4.70;97.90
3262;DHT22;1643;47.746;9.000;2023-03-01T13:38:46;4.80;98.00
3262;DHT22;1643;47.746;9.000;2023-03-01T13:41:27;4.80;97.90
3262;DHT22;1643;47.746;9.000;2023-03-01T13:46:40;4.70;97.80
3262;DHT22;1643;47.746;9.000;2023-03-01T13:49:17;4.80;97.90
3262;DHT22;1643;47.746;9.000;2023-03-01T13:51:46;4.90;97.90
3262;DHT22;1643;47.746;9.000;2023-03-01T13:54:15;4.90;97.80
3262;DHT22;1643;47.746;9.000;2023-03-01T13:56:40;4.90;97.80
3262;DHT22;1643;47.746;9.000;2023-03-01T13:59:27;5.00;97.70
3262;DHT22;1643;47.746;9.000;2023-03-01T14:02:00;4.90;97.60
3262;DHT22;1643;47.746;9.000;2023-03-01T14:04:31;4.90;98.00
3262;DHT22;1643;47.746;9.000;2023-03-01T14:09:41;4.90;97.70
3262;DHT22;1643;47.746;9.000;2023-03-01T14:15:38;4.90;97.80
3262;DHT22;1643;47.746;9.000;2023-03-01T14:18:25;5.00;97.90
3262;DHT22;1643;47.746;9.000;2023-03-01T14:20:53;5.00;97.80
3262;DHT22;1643;47.746;9.000;2023-03-01T14:23:21;5.00;97.80
3262;DHT22;1643;47.746;9.000;2023-03-01T14:25:55;5.00;97.70
3262;DHT22;1643;47.746;9.000;2023-03-01T14:30:54;4.90;97.80
3262;DHT22;1643;47.746;9.000;2023-03-01T14:33:25;4.90;97.80
3262;DHT22;1643;47.746;9.000;2023-03-01T14:38:22;4.90;97.90
3262;DHT22;1643;47.746;9.000;2023-03-01T14:40:51;5.00;97.90
3262;DHT22;1643;47.746;9.000;2023-03-01T14:43:22;5.00;98.00
3262;DHT22;1643;47.746;9.000;2023-03-01T14:45:49;5.00;98.00
3262;DHT22;1643;47.746;9.000;2023-03-01T14:48:16;5.00;98.00
3262;DHT22;1643;47.746;9.000;2023-03-01T14:50:43;5.00;98.20
3262;DHT22;1643;47.746;9.000;2023-03-01T14:53:25;4.90;97.90
3262;DHT22;1643;47.746;9.000;2023-03-01T14:55:55;4.90;98.00
3262;DHT22;1643;47.746;9.000;2023-03-01T14:58:23;4.90;98.20
3262;DHT22;1643;47.746;9.000;2023-03-01T15:00:58;5.00;97.90
3262;DHT22;1643;47.746;9.000;2023-03-01T15:03:36;5.10;97.90
3262;DHT22;1643;47.746;9.000;2023-03-01T15:06:06;5.10;97.80
3262;DHT22;1643;47.746;9.000;2023-03-01T15:08:33;5.20;97.80
3262;DHT22;1643;47.746;9.000;2023-03-01T15:13:32;5.20;97.80
3262;DHT22;1643;47.746;9.000;2023-03-01T15:16:10;5.30;97.80
3262;DHT22;1643;47.746;9.000;2023-03-01T15:18:37;5.30;97.70
3262;DHT22;1643;47.746;9.000;2023-03-01T15:21:22;5.30;97.70
3262;DHT22;1643;47.746;9.000;2023-03-01T15:24:06;5.30;97.70
3262;DHT22;1643;47.746;9.000;2023-03-01T15:26:42;5.20;97.60
3262;DHT22;1643;47.746;9.000;2023-03-01T15:29:18;5.30;97.60
3262;DHT22;1643;47.746;9.000;2023-03-01T15:31:54;5.30;97.40
3262;DHT22;1643;47.746;9.000;2023-03-01T15:34:24;5.30;97.40
3262;DHT22;1643;47.746;9.000;2023-03-01T15:36:53;5.30;97.50
3262;DHT22;1643;47.746;9.000;2023-03-01T15:44:33;5.10;97.50
3262;DHT22;1643;47.746;9.000;2023-03-01T15:46:59;5.20;97.40
3262;DHT22;1643;47.746;9.000;2023-03-01T15:49:43;5.20;97.40
3262;DHT22;1643;47.746;9.000;2023-03-01T15:52:24;5.20;97.50
3262;DHT22;1643;47.746;9.000;2023-03-01T15:55:00;5.20;97.50
3262;DHT22;1643;47.746;9.000;2023-03-01T15:57:26;5.20;97.50
3262;DHT22;1643;47.746;9.000;2023-03-01T15:59:52;5.20;97.60
3262;DHT22;1643;47.746;9.000;2023-03-01T16:02:18;5.20;97.60
3262;DHT22;1643;47.746;9.000;2023-03-01T16:04:46;5.20;97.60
3262;DHT22;1643;47.746;9.000;2023-03-01T16:07:12;5.20;97.50
3262;DHT22;1643;47.746;9.000;2023-03-01T16:09:37;5.20;97.50
3262;DHT22;1643;47.746;9.000;2023-03-01T16:12:03;5.30;97.50
3262;DHT22;1643;47.746;9.000;2023-03-01T16:14:29;5.30;97.50
3262;DHT22;1643;47.746;9.000;2023-03-01T16:16:54;5.30;97.50
3262;DHT22;1643;47.746;9.000;2023-03-01T16:19:20;5.30;97.50
3262;DHT22;1643;47.746;9.000;2023-03-01T16:21:46;5.40;97.50
3262;DHT22;1643;47.746;9.000;2023-03-01T16:24:13;5.40;97.50
3262;DHT22;1643;47.746;9.000;2023-03-01T16:26:39;5.40;97.40
3262;DHT22;1643;47.746;9.000;2023-03-01T16:29:05;5.40;97.40
3262;DHT22;1643;47.746;9.000;2023-03-01T16:31:31;5.40;97.40
3262;DHT22;1643;47.746;9.000;2023-03-01T16:33:58;5.40;97.30
3262;DHT22;1643;47.746;9.000;2023-03-01T16:36:25;5.40;97.40
3262;DHT22;1643;47.746;9.000;2023-03-01T16:38:54;5.30;97.40
3262;DHT22;1643;47.746;9.000;2023-03-01T16:41:22;5.30;97.50
3262;DHT22;1643;47.746;9.000;2023-03-01T16:43:48;5.20;97.50
3262;DHT22;1643;47.746;9.000;2023-03-01T16:46:17;5.20;97.50
3262;DHT22;1643;47.746;9.000;2023-03-01T16:48:43;5.10;97.60
3262;DHT22;1643;47.746;9.000;2023-03-01T16:51:08;5.10;97.70
3262;DHT22;1643;47.746;9.000;2023-03-01T16:53:35;5.10;97.70
3262;DHT22;1643;47.746;9.000;2023-03-01T16:56:02;5.10;97.70
3262;DHT22;1643;47.746;9.000;2023-03-01T16:58:29;5.10;97.70
3262;DHT22;1643;47.746;9.000;2023-03-01T17:00:55;5.00;97.70
3262;DHT22;1643;47.746;9.000;2023-03-01T17:03:25;5.10;97.70
3262;DHT22;1643;47.746;9.000;2023-03-01T17:05:51;5.00;97.80
3262;DHT22;1643;47.746;9.000;2023-03-01T17:08:17;5.00;97.80
3262;DHT22;1643;47.746;9.000;2023-03-01T17:10:43;5.00;97.80
3262;DHT22;1643;47.746;9.000;2023-03-01T17:13:09;5.00;97.90
3262;DHT22;1643;47.746;9.000;2023-03-01T17:15:38;5.00;97.90
3262;DHT22;1643;47.746;9.000;2023-03-01T17:18:04;5.00;97.90
3262;DHT22;1643;47.746;9.000;2023-03-01T17:20:30;4.90;97.90
3262;DHT22;1643;47.746;9.000;2023-03-01T17:22:55;4.90;97.90
3262;DHT22;1643;47.746;9.000;2023-03-01T17:25:21;4.90;98.00
3262;DHT22;1643;47.746;9.000;2023-03-01T17:27:47;4.90;98.00
3262;DHT22;1643;47.746;9.000;2023-03-01T17:30:13;4.90;98.10
3262;DHT22;1643;47.746;9.000;2023-03-01T17:32:40;4.90;98.10
3262;DHT22;1643;47.746;9.000;2023-03-01T17:35:06;4.90;98.10
3262;DHT22;1643;47.746;9.000;2023-03-01T17:37:32;4.90;98.10
3262;DHT22;1643;47.746;9.000;2023-03-01T17:39:58;4.90;98.10
3262;DHT22;1643;47.746;9.000;2023-03-01T17:42:24;4.80;98.10
3262;DHT22;1643;47.746;9.000;2023-03-01T17:44:49;4.80;98.10
3262;DHT22;1643;47.746;9.000;2023-03-01T17:47:15;4.80;98.50
3262;DHT22;1643;47.746;9.000;2023-03-01T17:49:41;4.80;98.20
3262;DHT22;1643;47.746;9.000;2023-03-01T17:52:06;4.80;98.20
3262;DHT22;1643;47.746;9.000;2023-03-01T17:54:32;4.80;98.30
3262;DHT22;1643;47.746;9.000;2023-03-01T17:56:58;4.80;98.30
3262;DHT22;1643;47.746;9.000;2023-03-01T17:59:24;4.70;98.30
3262;DHT22;1643;47.746;9.000;2023-03-01T18:01:56;4.80;98.40
3262;DHT22;1643;47.746;9.000;2023-03-01T18:04:22;4.70;98.40
3262;DHT22;1643;47.746;9.000;2023-03-01T18:06:47;4.70;98.40
3262;DHT22;1643;47.746;9.000;2023-03-01T18:09:13;4.70;98.40
3262;DHT22;1643;47.746;9.000;2023-03-01T18:11:39;4.70;98.50
3262;DHT22;1643;47.746;9.000;2023-03-01T18:14:06;4.70;98.50
3262;DHT22;1643;47.746;9.000;2023-03-01T18:16:32;4.70;98.50
3262;DHT22;1643;47.746;9.000;2023-03-01T18:18:58;4.70;98.60